»·PEaware :: N772SR EDAY-EKYT

N772SR :: EDAY-EKYT

FLIGHT INFORMATION

Flight Status: Arrived
Operator: Privately registered:
United States
More flights under this callsign
Pilot: Anonymous 15096 (15096)
Aircraft: PIPER PA-44 SEMINOLE
(PA44)
More flights by this aircraft type
Origin: EDAY Strausberg
Germany
Destination: EKYT Aalborg
Denmark
More flights between these airports :: More routes between these airports
Route: DCT KETAP L619 VIBIS DCT AAL
File this flight plan on PilotEdge
Remarks:
Altitude:
(Current/Filed)
10,000ft
Speed:
(Current/Filed)
150kts
Departed: 20-May-17 05:15 AM
Arrived: 20-May-17 07:53 AM
Distance/Time
Traveled:
304nm/2:37
Distance/Time
To Go:
Arrived

Flight Plot

Page will automatically refresh every two minutes.

Flight plan parsing failed; only flown route is shown


Map Options




Map Legend


Flown Route
Filed Route
Departure Airport
Arrival Airport
Navaid (VOR, NDB)
Fix

Horizontal Profiles

Position Reports

Time Latitude Longitude Heading Altitude Ground
Speed
20-May-17 05:10 52.585126 13.913895 156 259ft 0kts
20-May-17 05:11 52.585126 13.913895 156 259ft 0kts
20-May-17 05:12 52.585126 13.913895 156 259ft 0kts
20-May-17 05:13 52.585171 13.916269 154 259ft 12kts
20-May-17 05:14 52.584077 13.920272 110 259ft 7kts
20-May-17 05:15 52.583653 13.921880 123 259ft 4kts
20-May-17 05:16 52.583603 13.921983 129 259ft 1kts
20-May-17 05:17 52.578780 13.902550 316 1018ft 97kts
20-May-17 05:18 52.599117 13.891706 35 2663ft 112kts
20-May-17 05:19 52.621845 13.892543 320 4023ft 107kts
20-May-17 05:20 52.648052 13.867671 327 5169ft 120kts
20-May-17 05:21 52.674606 13.846254 329 6221ft 122kts
20-May-17 05:22 52.700494 13.826445 330 7231ft 122kts
20-May-17 05:23 52.726331 13.807010 331 8246ft 120kts
20-May-17 05:24 52.751216 13.788373 332 9245ft 116kts
20-May-17 05:25 52.775303 13.770333 332 10245ft 111kts
20-May-17 05:26 52.797391 13.753785 333 11212ft 104kts
20-May-17 05:27 52.821358 13.735758 334 11572ft 144kts
20-May-17 05:28 52.852916 13.712107 334 11562ft 159kts
20-May-17 05:29 52.885571 13.687556 334 11561ft 161kts
20-May-17 05:30 52.918955 13.662303 331 11560ft 161kts
20-May-17 05:31 52.929394 13.608605 272 11561ft 155kts
20-May-17 05:32 52.932367 13.548415 271 11561ft 155kts
20-May-17 05:33 52.934804 13.490979 271 11561ft 155kts
20-May-17 05:34 52.937120 13.433748 271 11561ft 155kts
20-May-17 05:35 52.939401 13.376321 271 11561ft 155kts
20-May-17 05:36 52.941285 13.328033 270 11561ft 155kts
20-May-17 05:37 52.943347 13.274791 270 11561ft 155kts
20-May-17 05:38 52.945678 13.213495 270 11561ft 155kts
20-May-17 05:39 52.948238 13.145148 270 11561ft 154kts
20-May-17 05:40 52.950501 13.083790 270 11561ft 153kts
20-May-17 05:41 52.952531 13.027479 270 11561ft 152kts
20-May-17 05:42 52.954494 12.972475 270 11561ft 151kts
20-May-17 05:43 52.956438 12.917517 270 11561ft 150kts
20-May-17 05:44 52.958303 12.863908 270 11561ft 150kts
20-May-17 05:45 52.960173 12.809616 270 11561ft 150kts
20-May-17 05:46 52.962022 12.755621 270 11561ft 150kts
20-May-17 05:47 52.963852 12.701396 270 11561ft 150kts
20-May-17 05:48 52.965664 12.646928 270 11561ft 150kts
20-May-17 05:49 52.967496 12.591347 270 11561ft 150kts
20-May-17 05:50 52.969384 12.533075 270 11561ft 150kts
20-May-17 05:51 52.971199 12.476238 270 11561ft 150kts
20-May-17 05:52 52.972995 12.418875 269 11561ft 150kts
20-May-17 05:53 52.974838 12.359085 269 11561ft 150kts
20-May-17 05:54 53.003417 12.325608 339 11562ft 162kts
20-May-17 05:55 53.042346 12.305138 339 11562ft 164kts
20-May-17 05:56 53.081391 12.285041 339 11562ft 167kts
20-May-17 05:57 53.109982 12.270354 339 11559ft 168kts
20-May-17 05:58 53.147471 12.251107 339 11558ft 169kts
20-May-17 05:59 53.187780 12.230365 339 11558ft 170kts
20-May-17 06:00 53.228208 12.209526 339 11559ft 170kts
20-May-17 06:01 53.268715 12.188604 339 11559ft 170kts
20-May-17 06:02 53.308967 12.167774 339 11559ft 170kts
20-May-17 06:03 53.349239 12.146889 339 11559ft 170kts
20-May-17 06:04 53.389891 12.125780 339 11559ft 170kts
20-May-17 06:05 53.430078 12.104873 339 11560ft 170kts
20-May-17 06:06 53.473933 12.081995 339 11560ft 170kts
20-May-17 06:07 53.518327 12.058790 339 11560ft 170kts
20-May-17 06:08 53.562547 12.035621 339 11560ft 170kts
20-May-17 06:09 53.606697 12.012438 339 11560ft 170kts
20-May-17 06:10 53.650583 11.989331 339 11561ft 170kts
20-May-17 06:11 53.694559 11.966118 339 11561ft 170kts
20-May-17 06:12 53.739065 11.942575 339 11561ft 171kts
20-May-17 06:13 53.783751 11.918908 339 11561ft 171kts
20-May-17 06:14 53.828347 11.895244 339 11561ft 171kts
20-May-17 06:15 53.872863 11.871552 339 11562ft 171kts
20-May-17 06:16 53.917367 11.847804 339 11562ft 171kts
20-May-17 06:17 53.961448 11.824231 339 11562ft 171kts
20-May-17 06:18 54.005726 11.800514 339 11562ft 171kts
20-May-17 06:19 54.049967 11.776775 339 11563ft 171kts
20-May-17 06:20 54.093660 11.753287 339 11563ft 171kts
20-May-17 06:21 54.136587 11.730136 339 11558ft 170kts
20-May-17 06:22 54.180672 11.706299 339 11558ft 170kts
20-May-17 06:23 54.224535 11.682530 339 11558ft 170kts
20-May-17 06:24 54.268619 11.658596 339 11559ft 170kts
20-May-17 06:25 54.312782 11.634581 339 11559ft 170kts
20-May-17 06:26 54.357555 11.610176 339 11559ft 170kts
20-May-17 06:27 54.401529 11.586141 339 11559ft 170kts
20-May-17 06:28 54.442595 11.563646 339 11559ft 170kts
20-May-17 06:29 54.486271 11.539684 339 11560ft 170kts
20-May-17 06:30 54.530563 11.515337 339 11560ft 170kts
20-May-17 06:31 54.574985 11.490847 339 11551ft 171kts
20-May-17 06:32 54.620396 11.465751 339 11512ft 172kts
20-May-17 06:33 54.665424 11.440813 339 11483ft 171kts
20-May-17 06:34 54.710711 11.415676 339 11465ft 171kts
20-May-17 06:35 54.755753 11.390615 339 11456ft 171kts
20-May-17 06:36 54.800834 11.365466 339 11440ft 171kts
20-May-17 06:37 54.841987 11.342459 338 11416ft 171kts
20-May-17 06:38 54.887362 11.317033 338 11381ft 171kts
20-May-17 06:39 54.932618 11.291592 338 11380ft 171kts
20-May-17 06:40 54.977711 11.266197 339 11386ft 171kts
20-May-17 06:41 55.022918 11.240681 340 11403ft 171kts
20-May-17 06:42 55.068062 11.215163 340 11420ft 171kts
20-May-17 06:43 55.111758 11.190409 340 11432ft 171kts
20-May-17 06:44 55.156509 11.164972 340 11448ft 170kts
20-May-17 06:45 55.201249 11.139499 340 11465ft 170kts
20-May-17 06:46 55.246091 11.113895 340 11481ft 170kts
20-May-17 06:47 55.290702 11.088346 340 11498ft 170kts
20-May-17 06:48 55.335435 11.062658 340 11515ft 170kts
20-May-17 06:49 55.380301 11.036840 340 11531ft 171kts
20-May-17 06:50 55.425216 11.010960 340 11532ft 171kts
20-May-17 06:51 55.470068 10.985035 340 11533ft 172kts
20-May-17 06:52 55.515224 10.958857 340 11533ft 172kts
20-May-17 06:53 55.560658 10.932490 340 11533ft 173kts
20-May-17 06:54 55.606137 10.906020 341 11533ft 173kts
20-May-17 06:55 55.651457 10.879571 340 11534ft 174kts
20-May-17 06:56 55.697274 10.852755 341 11534ft 174kts
20-May-17 06:57 55.742496 10.826222 341 11534ft 174kts
20-May-17 06:58 55.787812 10.799583 341 11535ft 175kts
20-May-17 06:59 55.831503 10.773854 341 11535ft 175kts
20-May-17 07:00 55.875793 10.747651 341 11535ft 175kts
20-May-17 07:01 55.921371 10.720653 341 11535ft 175kts
20-May-17 07:02 55.966509 10.693875 341 11536ft 175kts
20-May-17 07:03 56.008911 10.668661 341 11536ft 175kts
20-May-17 07:04 56.052085 10.642898 341 11536ft 175kts
20-May-17 07:05 56.081101 10.625543 341 11536ft 175kts
20-May-17 07:06 56.081101 10.625543 341 11536ft 175kts
20-May-17 07:07 56.081101 10.625543 341 11536ft 175kts
20-May-17 07:08 56.091830 10.619167 339 11546ft 174kts
20-May-17 07:09 56.129235 10.596789 338 11558ft 170kts
20-May-17 07:10 56.168523 10.573167 339 11558ft 169kts
20-May-17 07:11 56.205694 10.550845 338 11114ft 155kts
20-May-17 07:12 56.239035 10.530734 337 10678ft 147kts
20-May-17 07:13 56.269877 10.512099 337 10268ft 144kts
20-May-17 07:14 56.299461 10.494202 337 9871ft 143kts
20-May-17 07:15 56.328315 10.476709 336 9482ft 143kts
20-May-17 07:16 56.354977 10.460544 337 9123ft 142kts
20-May-17 07:17 56.380349 10.445150 337 8776ft 141kts
20-May-17 07:18 56.405382 10.429911 336 8433ft 140kts
20-May-17 07:19 56.432144 10.413575 336 8066ft 140kts
20-May-17 07:20 56.467835 10.391803 336 7573ft 139kts
20-May-17 07:21 56.491307 10.377476 335 7246ft 138kts
20-May-17 07:22 56.513918 10.363619 335 6931ft 137kts
20-May-17 07:23 56.537227 10.349307 335 6602ft 137kts
20-May-17 07:24 56.562970 10.333522 335 6249ft 134kts
20-May-17 07:25 56.588589 10.317766 335 5888ft 135kts
20-May-17 07:26 56.612655 10.302962 335 5552ft 134kts
20-May-17 07:27 56.636741 10.288114 335 5212ft 133kts
20-May-17 07:28 56.661758 10.272653 335 4859ft 132kts
20-May-17 07:29 56.688676 10.278983 7 4501ft 139kts
20-May-17 07:30 56.717820 10.291984 8 4117ft 138kts
20-May-17 07:31 56.750225 10.306469 8 3686ft 137kts
20-May-17 07:32 56.785372 10.322211 8 3217ft 136kts
20-May-17 07:33 56.821348 10.338317 8 2733ft 136kts
20-May-17 07:34 56.855831 10.340689 341 2503ft 120kts
20-May-17 07:35 56.885791 10.325528 336 2319ft 118kts
20-May-17 07:36 56.915100 10.308937 336 2184ft 114kts
20-May-17 07:37 56.942004 10.293631 335 2185ft 96kts
20-May-17 07:38 56.966447 10.279616 335 2187ft 94kts
20-May-17 07:39 56.988859 10.266756 335 2187ft 94kts
20-May-17 07:40 57.011903 10.253535 335 2187ft 94kts
20-May-17 07:41 57.035407 10.240028 335 2187ft 94kts
20-May-17 07:42 57.059211 10.226323 335 2187ft 94kts
20-May-17 07:43 57.083601 10.212262 335 2187ft 94kts
20-May-17 07:44 57.107489 10.198473 335 2186ft 94kts
20-May-17 07:45 57.112897 10.161516 266 2186ft 85kts
20-May-17 07:46 57.111663 10.121690 266 2186ft 82kts
20-May-17 07:47 57.110043 10.089273 264 2181ft 59kts
20-May-17 07:48 57.108196 10.057756 264 2186ft 63kts
20-May-17 07:49 57.106292 10.026040 263 1873ft 68kts
20-May-17 07:50 57.103229 9.993715 261 1266ft 61kts
20-May-17 07:51 57.100109 9.963540 267 830ft 60kts
20-May-17 07:52 57.100236 9.934436 265 489ft 56kts
20-May-17 07:53 57.098241 9.906919 266 149ft 49kts
20-May-17 07:54 57.096610 9.881073 263 139ft 50kts
20-May-17 07:55 57.095339 9.867489 173 10ft 11kts
20-May-17 07:56 57.093694 9.863159 263 10ft 20kts
20-May-17 07:57 57.092849 9.859763 142 10ft 1kts
20-May-17 07:58 57.090557 9.862911 143 10ft 25kts
20-May-17 07:59 57.086451 9.868657 207 10ft 13kts
20-May-17 08:00 57.085749 9.868201 138 10ft 0kts

Navigation Log

Ident Type
Flight plan parsing failed, navigation log unavailable